Crawfordsville, Iowa
Current Conditions -  °F | °C
As of 8:35 PM on Sunday 23 Nov 2014 (Local Time) from KAWG Reporting Station
Haze Haze  
Wind Chill: 50°   Ceiling: 300
Heat Index: 50°   Visibility: 2mi
Dew Point: 50°   Wind: 10mph
Humidity: 100%   Direction: 310°NW
Pressure: 29.23"   Gusts: NA
Location:  41.24°N, 91.56°W
Report Text: KAWG 240235Z AUTO 31009KT 2SM BR OVC003 10/10 A2923 RMK AO2
Loading
Personal Weather Stations






























Interactive Weather Map New forecast layout! Learn more

10-Day Weather Forecast

Advertisements
Track Severe Weather on mobile